sensor_id;sensor_type;location;lat;lon;timestamp;P1;durP1;ratioP1;P2;durP2;ratioP2
76552;SDS011;65395;53.168;18.156;2023-04-08T00:00:26;48.20;;;26.20;;
76552;SDS011;65395;53.168;18.156;2023-04-08T00:03:12;45.40;;;25.40;;
76552;SDS011;65395;53.168;18.156;2023-04-08T00:05:39;44.90;;;26.20;;
76552;SDS011;65395;53.168;18.156;2023-04-08T00:08:06;48.10;;;25.40;;
76552;SDS011;65395;53.168;18.156;2023-04-08T00:10:33;45.00;;;25.40;;
76552;SDS011;65395;53.168;18.156;2023-04-08T00:13:00;47.00;;;23.90;;
76552;SDS011;65395;53.168;18.156;2023-04-08T00:15:27;46.40;;;25.10;;
76552;SDS011;65395;53.168;18.156;2023-04-08T00:17:54;45.10;;;23.50;;
76552;SDS011;65395;53.168;18.156;2023-04-08T00:20:22;44.70;;;24.50;;
76552;SDS011;65395;53.168;18.156;2023-04-08T00:22:49;42.00;;;23.70;;
76552;SDS011;65395;53.168;18.156;2023-04-08T00:25:16;38.00;;;22.30;;
76552;SDS011;65395;53.168;18.156;2023-04-08T00:27:43;40.30;;;23.10;;
76552;SDS011;65395;53.168;18.156;2023-04-08T00:30:10;43.40;;;22.90;;
76552;SDS011;65395;53.168;18.156;2023-04-08T00:32:37;39.10;;;22.90;;
76552;SDS011;65395;53.168;18.156;2023-04-08T00:35:04;39.00;;;23.40;;
76552;SDS011;65395;53.168;18.156;2023-04-08T00:37:31;43.40;;;22.70;;
76552;SDS011;65395;53.168;18.156;2023-04-08T00:39:58;36.90;;;22.30;;
76552;SDS011;65395;53.168;18.156;2023-04-08T00:42:24;39.60;;;21.00;;
76552;SDS011;65395;53.168;18.156;2023-04-08T00:44:51;38.50;;;20.90;;
76552;SDS011;65395;53.168;18.156;2023-04-08T00:47:18;36.50;;;21.10;;
76552;SDS011;65395;53.168;18.156;2023-04-08T00:49:45;35.20;;;21.00;;
76552;SDS011;65395;53.168;18.156;2023-04-08T00:52:12;37.50;;;21.00;;
76552;SDS011;65395;53.168;18.156;2023-04-08T00:54:40;35.00;;;20.40;;
76552;SDS011;65395;53.168;18.156;2023-04-08T00:57:07;36.60;;;21.10;;
76552;SDS011;65395;53.168;18.156;2023-04-08T00:59:34;36.10;;;21.20;;
76552;SDS011;65395;53.168;18.156;2023-04-08T01:02:06;33.10;;;19.30;;
76552;SDS011;65395;53.168;18.156;2023-04-08T01:07:27;35.20;;;20.90;;
76552;SDS011;65395;53.168;18.156;2023-04-08T01:09:58;37.80;;;20.00;;
76552;SDS011;65395;53.168;18.156;2023-04-08T01:12:29;37.10;;;20.90;;
76552;SDS011;65395;53.168;18.156;2023-04-08T01:15:00;34.70;;;19.20;;
76552;SDS011;65395;53.168;18.156;2023-04-08T01:17:31;29.80;;;17.80;;
76552;SDS011;65395;53.168;18.156;2023-04-08T01:19:59;32.40;;;17.70;;
76552;SDS011;65395;53.168;18.156;2023-04-08T01:25:15;31.70;;;17.40;;
76552;SDS011;65395;53.168;18.156;2023-04-08T01:27:45;32.00;;;17.80;;
76552;SDS011;65395;53.168;18.156;2023-04-08T01:30:14;32.40;;;18.60;;
76552;SDS011;65395;53.168;18.156;2023-04-08T01:32:44;37.00;;;19.30;;
76552;SDS011;65395;53.168;18.156;2023-04-08T01:35:13;33.70;;;18.30;;
76552;SDS011;65395;53.168;18.156;2023-04-08T01:37:41;29.40;;;16.20;;
76552;SDS011;65395;53.168;18.156;2023-04-08T01:40:09;30.10;;;16.80;;
76552;SDS011;65395;53.168;18.156;2023-04-08T01:42:37;32.80;;;18.10;;
76552;SDS011;65395;53.168;18.156;2023-04-08T01:45:04;31.30;;;15.90;;
76552;SDS011;65395;53.168;18.156;2023-04-08T01:47:33;36.20;;;19.40;;
76552;SDS011;65395;53.168;18.156;2023-04-08T01:50:01;33.40;;;17.20;;
76552;SDS011;65395;53.168;18.156;2023-04-08T01:52:28;35.10;;;18.10;;
76552;SDS011;65395;53.168;18.156;2023-04-08T01:54:56;29.40;;;16.10;;
76552;SDS011;65395;53.168;18.156;2023-04-08T01:57:23;29.30;;;15.30;;
76552;SDS011;65395;53.168;18.156;2023-04-08T01:59:58;25.50;;;14.30;;
76552;SDS011;65395;53.168;18.156;2023-04-08T02:02:46;26.10;;;14.50;;
76552;SDS011;65395;53.168;18.156;2023-04-08T02:05:14;26.30;;;14.40;;
76552;SDS011;65395;53.168;18.156;2023-04-08T02:07:41;26.00;;;14.20;;
76552;SDS011;65395;53.168;18.156;2023-04-08T02:10:08;29.40;;;14.60;;
76552;SDS011;65395;53.168;18.156;2023-04-08T02:12:35;30.70;;;14.70;;
76552;SDS011;65395;53.168;18.156;2023-04-08T02:15:02;27.80;;;14.20;;
76552;SDS011;65395;53.168;18.156;2023-04-08T02:20:18;27.50;;;13.30;;
76552;SDS011;65395;53.168;18.156;2023-04-08T02:25:46;26.60;;;13.00;;
76552;SDS011;65395;53.168;18.156;2023-04-08T02:28:14;26.10;;;13.40;;
76552;SDS011;65395;53.168;18.156;2023-04-08T02:30:46;23.40;;;11.50;;
76552;SDS011;65395;53.168;18.156;2023-04-08T02:33:19;22.10;;;11.30;;
76552;SDS011;65395;53.168;18.156;2023-04-08T02:35:48;23.90;;;11.90;;
76552;SDS011;65395;53.168;18.156;2023-04-08T02:38:16;20.70;;;12.00;;
76552;SDS011;65395;53.168;18.156;2023-04-08T02:40:43;22.30;;;13.30;;
76552;SDS011;65395;53.168;18.156;2023-04-08T02:43:10;26.40;;;13.60;;
76552;SDS011;65395;53.168;18.156;2023-04-08T02:45:37;25.10;;;14.50;;
76552;SDS011;65395;53.168;18.156;2023-04-08T02:48:06;19.70;;;11.90;;
76552;SDS011;65395;53.168;18.156;2023-04-08T02:50:33;27.10;;;13.80;;
76552;SDS011;65395;53.168;18.156;2023-04-08T02:53:00;24.60;;;13.30;;
76552;SDS011;65395;53.168;18.156;2023-04-08T02:55:27;25.00;;;12.30;;
76552;SDS011;65395;53.168;18.156;2023-04-08T02:57:54;25.50;;;12.80;;
76552;SDS011;65395;53.168;18.156;2023-04-08T03:00:21;25.30;;;12.50;;
76552;SDS011;65395;53.168;18.156;2023-04-08T03:02:47;26.00;;;13.10;;
76552;SDS011;65395;53.168;18.156;2023-04-08T03:05:14;22.40;;;12.00;;
76552;SDS011;65395;53.168;18.156;2023-04-08T03:07:42;24.50;;;13.10;;
76552;SDS011;65395;53.168;18.156;2023-04-08T03:10:09;32.50;;;13.80;;
76552;SDS011;65395;53.168;18.156;2023-04-08T03:12:36;29.80;;;13.70;;
76552;SDS011;65395;53.168;18.156;2023-04-08T03:15:03;39.70;;;15.20;;
76552;SDS011;65395;53.168;18.156;2023-04-08T03:17:30;32.20;;;14.70;;
76552;SDS011;65395;53.168;18.156;2023-04-08T03:19:59;27.50;;;13.60;;
76552;SDS011;65395;53.168;18.156;2023-04-08T03:22:30;29.70;;;12.80;;
76552;SDS011;65395;53.168;18.156;2023-04-08T03:24:57;29.10;;;13.40;;
76552;SDS011;65395;53.168;18.156;2023-04-08T03:27:23;23.20;;;12.90;;
76552;SDS011;65395;53.168;18.156;2023-04-08T03:29:51;26.10;;;13.00;;
76552;SDS011;65395;53.168;18.156;2023-04-08T03:32:18;23.70;;;12.50;;
76552;SDS011;65395;53.168;18.156;2023-04-08T03:34:45;21.30;;;11.70;;
76552;SDS011;65395;53.168;18.156;2023-04-08T03:37:12;21.50;;;11.90;;
76552;SDS011;65395;53.168;18.156;2023-04-08T03:39:38;21.10;;;11.00;;
76552;SDS011;65395;53.168;18.156;2023-04-08T03:42:05;20.40;;;11.20;;
76552;SDS011;65395;53.168;18.156;2023-04-08T03:44:31;20.80;;;9.90;;
76552;SDS011;65395;53.168;18.156;2023-04-08T03:46:58;22.10;;;10.50;;
76552;SDS011;65395;53.168;18.156;2023-04-08T03:49:25;19.30;;;10.90;;
76552;SDS011;65395;53.168;18.156;2023-04-08T03:51:52;16.40;;;9.10;;
76552;SDS011;65395;53.168;18.156;2023-04-08T03:54:18;21.50;;;10.50;;
76552;SDS011;65395;53.168;18.156;2023-04-08T03:56:45;20.60;;;10.40;;
76552;SDS011;65395;53.168;18.156;2023-04-08T03:59:12;21.80;;;11.10;;
76552;SDS011;65395;53.168;18.156;2023-04-08T04:01:38;19.50;;;11.50;;
76552;SDS011;65395;53.168;18.156;2023-04-08T04:04:05;19.30;;;11.20;;
76552;SDS011;65395;53.168;18.156;2023-04-08T04:06:32;18.90;;;10.60;;
76552;SDS011;65395;53.168;18.156;2023-04-08T04:08:59;18.20;;;10.20;;
76552;SDS011;65395;53.168;18.156;2023-04-08T04:11:25;19.50;;;10.60;;
76552;SDS011;65395;53.168;18.156;2023-04-08T04:13:52;22.30;;;10.70;;
76552;SDS011;65395;53.168;18.156;2023-04-08T04:16:19;18.20;;;9.90;;
76552;SDS011;65395;53.168;18.156;2023-04-08T04:18:46;18.40;;;9.60;;
76552;SDS011;65395;53.168;18.156;2023-04-08T04:21:13;18.70;;;10.00;;
76552;SDS011;65395;53.168;18.156;2023-04-08T04:23:39;17.90;;;9.90;;
76552;SDS011;65395;53.168;18.156;2023-04-08T04:26:07;19.80;;;10.40;;
76552;SDS011;65395;53.168;18.156;2023-04-08T04:28:35;19.70;;;11.20;;
76552;SDS011;65395;53.168;18.156;2023-04-08T04:31:02;23.20;;;11.00;;
76552;SDS011;65395;53.168;18.156;2023-04-08T04:33:30;17.70;;;9.60;;
76552;SDS011;65395;53.168;18.156;2023-04-08T04:35:56;18.80;;;10.70;;
76552;SDS011;65395;53.168;18.156;2023-04-08T04:38:23;20.90;;;10.90;;
76552;SDS011;65395;53.168;18.156;2023-04-08T04:40:50;20.40;;;10.70;;
76552;SDS011;65395;53.168;18.156;2023-04-08T04:43:17;21.70;;;11.20;;
76552;SDS011;65395;53.168;18.156;2023-04-08T04:45:43;24.20;;;11.60;;
76552;SDS011;65395;53.168;18.156;2023-04-08T04:48:10;26.00;;;12.50;;
76552;SDS011;65395;53.168;18.156;2023-04-08T04:50:37;22.50;;;12.40;;
76552;SDS011;65395;53.168;18.156;2023-04-08T04:53:03;25.50;;;13.70;;
76552;SDS011;65395;53.168;18.156;2023-04-08T04:55:30;21.70;;;12.10;;
76552;SDS011;65395;53.168;18.156;2023-04-08T04:57:57;21.90;;;11.70;;
76552;SDS011;65395;53.168;18.156;2023-04-08T05:00:24;21.50;;;12.70;;
76552;SDS011;65395;53.168;18.156;2023-04-08T05:02:50;22.00;;;12.30;;
76552;SDS011;65395;53.168;18.156;2023-04-08T05:05:17;21.30;;;12.50;;
76552;SDS011;65395;53.168;18.156;2023-04-08T05:07:44;26.90;;;14.10;;
76552;SDS011;65395;53.168;18.156;2023-04-08T05:10:10;25.50;;;14.00;;
76552;SDS011;65395;53.168;18.156;2023-04-08T05:12:37;24.10;;;13.80;;
76552;SDS011;65395;53.168;18.156;2023-04-08T05:15:04;23.60;;;12.70;;
76552;SDS011;65395;53.168;18.156;2023-04-08T05:17:31;23.00;;;13.20;;
76552;SDS011;65395;53.168;18.156;2023-04-08T05:19:58;26.10;;;14.10;;
76552;SDS011;65395;53.168;18.156;2023-04-08T05:22:25;27.50;;;13.10;;
76552;SDS011;65395;53.168;18.156;2023-04-08T05:24:52;27.00;;;13.30;;
76552;SDS011;65395;53.168;18.156;2023-04-08T05:27:19;26.80;;;13.60;;
76552;SDS011;65395;53.168;18.156;2023-04-08T05:29:47;27.40;;;14.30;;
76552;SDS011;65395;53.168;18.156;2023-04-08T05:32:14;28.20;;;14.50;;
76552;SDS011;65395;53.168;18.156;2023-04-08T05:34:42;29.00;;;14.90;;
76552;SDS011;65395;53.168;18.156;2023-04-08T05:37:09;25.10;;;14.30;;
76552;SDS011;65395;53.168;18.156;2023-04-08T05:39:36;25.70;;;14.30;;
76552;SDS011;65395;53.168;18.156;2023-04-08T05:42:03;25.30;;;13.30;;
76552;SDS011;65395;53.168;18.156;2023-04-08T05:44:30;25.50;;;14.30;;
76552;SDS011;65395;53.168;18.156;2023-04-08T05:46:56;25.60;;;14.50;;
76552;SDS011;65395;53.168;18.156;2023-04-08T05:49:23;22.80;;;12.60;;
76552;SDS011;65395;53.168;18.156;2023-04-08T05:51:50;24.20;;;13.30;;
76552;SDS011;65395;53.168;18.156;2023-04-08T05:54:17;25.30;;;12.70;;
76552;SDS011;65395;53.168;18.156;2023-04-08T05:56:43;22.70;;;13.60;;
76552;SDS011;65395;53.168;18.156;2023-04-08T05:59:11;24.00;;;12.50;;
76552;SDS011;65395;53.168;18.156;2023-04-08T06:01:38;20.20;;;11.70;;
76552;SDS011;65395;53.168;18.156;2023-04-08T06:04:05;21.50;;;12.20;;
76552;SDS011;65395;53.168;18.156;2023-04-08T06:06:31;20.70;;;12.50;;
76552;SDS011;65395;53.168;18.156;2023-04-08T06:08:58;20.90;;;12.00;;
76552;SDS011;65395;53.168;18.156;2023-04-08T06:11:25;22.00;;;12.30;;
76552;SDS011;65395;53.168;18.156;2023-04-08T06:13:51;20.50;;;12.00;;
76552;SDS011;65395;53.168;18.156;2023-04-08T06:16:18;22.80;;;12.20;;
76552;SDS011;65395;53.168;18.156;2023-04-08T06:18:44;20.40;;;11.90;;
76552;SDS011;65395;53.168;18.156;2023-04-08T06:21:11;20.90;;;11.90;;
76552;SDS011;65395;53.168;18.156;2023-04-08T06:23:38;22.80;;;12.80;;
76552;SDS011;65395;53.168;18.156;2023-04-08T06:26:04;20.70;;;11.70;;
76552;SDS011;65395;53.168;18.156;2023-04-08T06:28:31;23.50;;;11.40;;
76552;SDS011;65395;53.168;18.156;2023-04-08T06:30:58;19.50;;;11.60;;
76552;SDS011;65395;53.168;18.156;2023-04-08T06:33:25;21.50;;;12.20;;
76552;SDS011;65395;53.168;18.156;2023-04-08T06:36:00;20.20;;;11.20;;
76552;SDS011;65395;53.168;18.156;2023-04-08T06:38:29;20.60;;;12.00;;
76552;SDS011;65395;53.168;18.156;2023-04-08T06:41:04;21.80;;;11.50;;
76552;SDS011;65395;53.168;18.156;2023-04-08T06:43:32;21.50;;;12.30;;
76552;SDS011;65395;53.168;18.156;2023-04-08T06:46:00;21.30;;;11.90;;
76552;SDS011;65395;53.168;18.156;2023-04-08T06:48:26;21.50;;;12.20;;
76552;SDS011;65395;53.168;18.156;2023-04-08T06:50:55;19.80;;;12.00;;
76552;SDS011;65395;53.168;18.156;2023-04-08T06:53:23;19.50;;;12.00;;
76552;SDS011;65395;53.168;18.156;2023-04-08T06:55:50;21.50;;;12.00;;
76552;SDS011;65395;53.168;18.156;2023-04-08T06:58:17;20.40;;;12.30;;
76552;SDS011;65395;53.168;18.156;2023-04-08T07:00:44;21.60;;;11.90;;
76552;SDS011;65395;53.168;18.156;2023-04-08T07:03:11;20.10;;;11.90;;
76552;SDS011;65395;53.168;18.156;2023-04-08T07:05:38;19.80;;;11.60;;
76552;SDS011;65395;53.168;18.156;2023-04-08T07:08:05;20.70;;;12.20;;
76552;SDS011;65395;53.168;18.156;2023-04-08T07:10:31;20.30;;;12.20;;
76552;SDS011;65395;53.168;18.156;2023-04-08T07:13:00;19.30;;;11.70;;
76552;SDS011;65395;53.168;18.156;2023-04-08T07:15:27;19.10;;;11.90;;
76552;SDS011;65395;53.168;18.156;2023-04-08T07:17:53;20.90;;;11.60;;
76552;SDS011;65395;53.168;18.156;2023-04-08T07:20:24;18.10;;;11.50;;
76552;SDS011;65395;53.168;18.156;2023-04-08T07:22:51;19.40;;;11.70;;
76552;SDS011;65395;53.168;18.156;2023-04-08T07:25:17;18.80;;;11.60;;
76552;SDS011;65395;53.168;18.156;2023-04-08T07:27:44;19.20;;;12.00;;
76552;SDS011;65395;53.168;18.156;2023-04-08T07:30:11;19.20;;;12.00;;
76552;SDS011;65395;53.168;18.156;2023-04-08T07:32:38;18.10;;;11.10;;
76552;SDS011;65395;53.168;18.156;2023-04-08T07:35:05;19.80;;;11.80;;
76552;SDS011;65395;53.168;18.156;2023-04-08T07:37:32;18.10;;;11.70;;
76552;SDS011;65395;53.168;18.156;2023-04-08T07:39:59;18.50;;;11.70;;
76552;SDS011;65395;53.168;18.156;2023-04-08T07:42:26;19.80;;;12.20;;
76552;SDS011;65395;53.168;18.156;2023-04-08T07:44:53;18.00;;;11.60;;
76552;SDS011;65395;53.168;18.156;2023-04-08T07:47:19;17.80;;;11.40;;
76552;SDS011;65395;53.168;18.156;2023-04-08T07:49:46;16.50;;;10.80;;
76552;SDS011;65395;53.168;18.156;2023-04-08T07:52:13;16.80;;;10.60;;
76552;SDS011;65395;53.168;18.156;2023-04-08T07:54:40;16.30;;;10.10;;
76552;SDS011;65395;53.168;18.156;2023-04-08T07:57:07;15.40;;;10.60;;
76552;SDS011;65395;53.168;18.156;2023-04-08T07:59:34;16.30;;;10.40;;
76552;SDS011;65395;53.168;18.156;2023-04-08T08:02:01;17.50;;;10.10;;
76552;SDS011;65395;53.168;18.156;2023-04-08T08:04:28;15.50;;;10.40;;
76552;SDS011;65395;53.168;18.156;2023-04-08T08:06:55;14.00;;;9.80;;
76552;SDS011;65395;53.168;18.156;2023-04-08T08:09:21;15.60;;;10.40;;
76552;SDS011;65395;53.168;18.156;2023-04-08T08:11:48;15.70;;;10.50;;
76552;SDS011;65395;53.168;18.156;2023-04-08T08:14:15;16.80;;;10.70;;
76552;SDS011;65395;53.168;18.156;2023-04-08T08:16:42;16.40;;;10.70;;
76552;SDS011;65395;53.168;18.156;2023-04-08T08:19:09;15.90;;;11.30;;
76552;SDS011;65395;53.168;18.156;2023-04-08T08:21:37;16.60;;;10.40;;
76552;SDS011;65395;53.168;18.156;2023-04-08T08:24:05;16.30;;;10.30;;
76552;SDS011;65395;53.168;18.156;2023-04-08T08:26:34;16.30;;;9.90;;
76552;SDS011;65395;53.168;18.156;2023-04-08T08:29:02;14.50;;;9.60;;
76552;SDS011;65395;53.168;18.156;2023-04-08T08:31:29;16.40;;;10.20;;
76552;SDS011;65395;53.168;18.156;2023-04-08T08:33:56;13.40;;;8.90;;
76552;SDS011;65395;53.168;18.156;2023-04-08T08:36:22;14.60;;;9.80;;
76552;SDS011;65395;53.168;18.156;2023-04-08T08:38:49;14.20;;;9.60;;
76552;SDS011;65395;53.168;18.156;2023-04-08T08:41:20;15.00;;;10.20;;
76552;SDS011;65395;53.168;18.156;2023-04-08T08:43:47;13.90;;;9.80;;
76552;SDS011;65395;53.168;18.156;2023-04-08T08:46:14;17.00;;;9.90;;
76552;SDS011;65395;53.168;18.156;2023-04-08T08:48:43;15.50;;;10.30;;
76552;SDS011;65395;53.168;18.156;2023-04-08T08:51:11;15.00;;;9.60;;
76552;SDS011;65395;53.168;18.156;2023-04-08T08:53:38;14.50;;;10.10;;
76552;SDS011;65395;53.168;18.156;2023-04-08T08:56:10;13.20;;;9.00;;
76552;SDS011;65395;53.168;18.156;2023-04-08T08:58:37;14.10;;;9.70;;
76552;SDS011;65395;53.168;18.156;2023-04-08T09:04:05;13.30;;;9.40;;
76552;SDS011;65395;53.168;18.156;2023-04-08T09:06:34;14.20;;;9.60;;
76552;SDS011;65395;53.168;18.156;2023-04-08T09:09:02;15.60;;;9.70;;
76552;SDS011;65395;53.168;18.156;2023-04-08T09:11:37;13.50;;;9.10;;
76552;SDS011;65395;53.168;18.156;2023-04-08T09:16:45;13.60;;;9.20;;
76552;SDS011;65395;53.168;18.156;2023-04-08T09:19:12;12.60;;;9.30;;
76552;SDS011;65395;53.168;18.156;2023-04-08T09:21:39;14.60;;;9.60;;
76552;SDS011;65395;53.168;18.156;2023-04-08T09:24:07;13.80;;;9.70;;
76552;SDS011;65395;53.168;18.156;2023-04-08T09:26:35;13.10;;;9.50;;
76552;SDS011;65395;53.168;18.156;2023-04-08T09:29:03;14.10;;;9.70;;
76552;SDS011;65395;53.168;18.156;2023-04-08T09:31:33;15.90;;;9.80;;
76552;SDS011;65395;53.168;18.156;2023-04-08T09:34:11;13.40;;;10.00;;
76552;SDS011;65395;53.168;18.156;2023-04-08T09:36:42;16.80;;;11.00;;
76552;SDS011;65395;53.168;18.156;2023-04-08T09:39:10;16.60;;;10.40;;
76552;SDS011;65395;53.168;18.156;2023-04-08T09:41:37;15.30;;;10.80;;
76552;SDS011;65395;53.168;18.156;2023-04-08T09:44:05;17.50;;;10.80;;
76552;SDS011;65395;53.168;18.156;2023-04-08T09:49:42;16.50;;;10.70;;
76552;SDS011;65395;53.168;18.156;2023-04-08T09:55:00;15.30;;;10.60;;
76552;SDS011;65395;53.168;18.156;2023-04-08T09:57:30;15.10;;;10.10;;
76552;SDS011;65395;53.168;18.156;2023-04-08T10:00:12;15.10;;;10.20;;
76552;SDS011;65395;53.168;18.156;2023-04-08T10:05:39;15.50;;;10.20;;
76552;SDS011;65395;53.168;18.156;2023-04-08T10:08:07;17.60;;;11.00;;
76552;SDS011;65395;53.168;18.156;2023-04-08T10:10:37;17.20;;;10.60;;
76552;SDS011;65395;53.168;18.156;2023-04-08T10:13:05;13.20;;;9.80;;
76552;SDS011;65395;53.168;18.156;2023-04-08T10:15:33;16.30;;;11.30;;
76552;SDS011;65395;53.168;18.156;2023-04-08T10:20:56;14.90;;;10.00;;
76552;SDS011;65395;53.168;18.156;2023-04-08T10:29:13;14.10;;;9.90;;
76552;SDS011;65395;53.168;18.156;2023-04-08T10:31:58;16.30;;;10.00;;
76552;SDS011;65395;53.168;18.156;2023-04-08T10:34:26;14.60;;;10.40;;
76552;SDS011;65395;53.168;18.156;2023-04-08T10:36:54;15.00;;;10.60;;
76552;SDS011;65395;53.168;18.156;2023-04-08T10:39:24;14.30;;;9.90;;
76552;SDS011;65395;53.168;18.156;2023-04-08T10:41:52;16.80;;;10.70;;
76552;SDS011;65395;53.168;18.156;2023-04-08T10:44:21;14.00;;;9.50;;
76552;SDS011;65395;53.168;18.156;2023-04-08T10:46:49;14.30;;;9.70;;
76552;SDS011;65395;53.168;18.156;2023-04-08T10:49:17;13.10;;;9.70;;
76552;SDS011;65395;53.168;18.156;2023-04-08T10:51:45;14.20;;;10.40;;
76552;SDS011;65395;53.168;18.156;2023-04-08T10:54:13;15.90;;;10.60;;
76552;SDS011;65395;53.168;18.156;2023-04-08T10:56:42;15.60;;;10.40;;
76552;SDS011;65395;53.168;18.156;2023-04-08T10:59:15;15.40;;;10.90;;
76552;SDS011;65395;53.168;18.156;2023-04-08T11:01:45;14.30;;;10.10;;
76552;SDS011;65395;53.168;18.156;2023-04-08T11:04:12;13.60;;;9.60;;
76552;SDS011;65395;53.168;18.156;2023-04-08T11:06:41;13.80;;;9.50;;
76552;SDS011;65395;53.168;18.156;2023-04-08T11:09:08;13.50;;;9.30;;
76552;SDS011;65395;53.168;18.156;2023-04-08T11:11:36;14.10;;;9.40;;
76552;SDS011;65395;53.168;18.156;2023-04-08T11:14:03;13.60;;;9.90;;
76552;SDS011;65395;53.168;18.156;2023-04-08T11:16:31;14.60;;;9.50;;
76552;SDS011;65395;53.168;18.156;2023-04-08T11:19:01;14.20;;;9.50;;
76552;SDS011;65395;53.168;18.156;2023-04-08T11:21:31;13.50;;;9.30;;
76552;SDS011;65395;53.168;18.156;2023-04-08T11:24:00;13.50;;;9.80;;
76552;SDS011;65395;53.168;18.156;2023-04-08T11:26:32;11.30;;;8.90;;
76552;SDS011;65395;53.168;18.156;2023-04-08T11:28:59;12.20;;;8.70;;
76552;SDS011;65395;53.168;18.156;2023-04-08T11:31:27;13.30;;;8.90;;
76552;SDS011;65395;53.168;18.156;2023-04-08T11:33:54;12.50;;;9.10;;
76552;SDS011;65395;53.168;18.156;2023-04-08T11:36:22;12.60;;;9.10;;
76552;SDS011;65395;53.168;18.156;2023-04-08T11:38:48;11.50;;;8.40;;
76552;SDS011;65395;53.168;18.156;2023-04-08T11:41:15;13.70;;;8.90;;
76552;SDS011;65395;53.168;18.156;2023-04-08T11:43:50;10.60;;;8.50;;
76552;SDS011;65395;53.168;18.156;2023-04-08T11:46:18;12.00;;;8.70;;
76552;SDS011;65395;53.168;18.156;2023-04-08T11:51:23;11.70;;;8.70;;
76552;SDS011;65395;53.168;18.156;2023-04-08T11:53:50;13.60;;;9.60;;
76552;SDS011;65395;53.168;18.156;2023-04-08T11:56:19;12.70;;;9.40;;
76552;SDS011;65395;53.168;18.156;2023-04-08T11:58:48;11.40;;;8.80;;
76552;SDS011;65395;53.168;18.156;2023-04-08T12:01:16;15.60;;;9.40;;
76552;SDS011;65395;53.168;18.156;2023-04-08T12:06:26;12.40;;;8.60;;
76552;SDS011;65395;53.168;18.156;2023-04-08T12:08:54;12.10;;;9.20;;
76552;SDS011;65395;53.168;18.156;2023-04-08T12:11:22;13.10;;;9.20;;
76552;SDS011;65395;53.168;18.156;2023-04-08T12:13:49;13.70;;;9.90;;
76552;SDS011;65395;53.168;18.156;2023-04-08T12:16:17;13.60;;;9.80;;
76552;SDS011;65395;53.168;18.156;2023-04-08T12:18:45;13.70;;;9.30;;
76552;SDS011;65395;53.168;18.156;2023-04-08T12:21:12;12.50;;;9.80;;
76552;SDS011;65395;53.168;18.156;2023-04-08T12:23:39;12.30;;;9.00;;
76552;SDS011;65395;53.168;18.156;2023-04-08T12:26:06;12.70;;;9.20;;
76552;SDS011;65395;53.168;18.156;2023-04-08T12:28:33;12.90;;;9.10;;
76552;SDS011;65395;53.168;18.156;2023-04-08T12:31:00;13.00;;;10.10;;
76552;SDS011;65395;53.168;18.156;2023-04-08T12:33:28;14.40;;;9.90;;
76552;SDS011;65395;53.168;18.156;2023-04-08T12:35:55;13.30;;;10.00;;
76552;SDS011;65395;53.168;18.156;2023-04-08T12:38:24;12.60;;;8.80;;
76552;SDS011;65395;53.168;18.156;2023-04-08T12:40:52;11.60;;;8.60;;
76552;SDS011;65395;53.168;18.156;2023-04-08T12:43:19;10.70;;;8.30;;
76552;SDS011;65395;53.168;18.156;2023-04-08T12:45:46;10.90;;;8.80;;
76552;SDS011;65395;53.168;18.156;2023-04-08T12:48:14;11.60;;;8.90;;
76552;SDS011;65395;53.168;18.156;2023-04-08T12:50:40;12.00;;;9.10;;
76552;SDS011;65395;53.168;18.156;2023-04-08T12:53:07;10.60;;;8.40;;
76552;SDS011;65395;53.168;18.156;2023-04-08T12:55:34;10.30;;;8.20;;
76552;SDS011;65395;53.168;18.156;2023-04-08T12:58:02;10.50;;;8.20;;
76552;SDS011;65395;53.168;18.156;2023-04-08T13:00:29;10.80;;;8.50;;
76552;SDS011;65395;53.168;18.156;2023-04-08T13:02:55;11.90;;;9.00;;
76552;SDS011;65395;53.168;18.156;2023-04-08T13:05:22;10.70;;;7.90;;
76552;SDS011;65395;53.168;18.156;2023-04-08T13:07:49;10.10;;;8.00;;
76552;SDS011;65395;53.168;18.156;2023-04-08T13:10:16;10.90;;;8.10;;
76552;SDS011;65395;53.168;18.156;2023-04-08T13:12:42;11.60;;;8.10;;
76552;SDS011;65395;53.168;18.156;2023-04-08T13:15:09;10.30;;;8.30;;
76552;SDS011;65395;53.168;18.156;2023-04-08T13:17:36;10.70;;;8.30;;
76552;SDS011;65395;53.168;18.156;2023-04-08T13:20:03;10.70;;;8.40;;
76552;SDS011;65395;53.168;18.156;2023-04-08T13:22:30;11.20;;;8.90;;
76552;SDS011;65395;53.168;18.156;2023-04-08T13:24:58;10.20;;;8.30;;
76552;SDS011;65395;53.168;18.156;2023-04-08T13:27:25;9.90;;;8.40;;
76552;SDS011;65395;53.168;18.156;2023-04-08T13:29:51;9.70;;;8.10;;
76552;SDS011;65395;53.168;18.156;2023-04-08T13:32:18;11.00;;;8.60;;
76552;SDS011;65395;53.168;18.156;2023-04-08T13:34:45;9.80;;;8.00;;
76552;SDS011;65395;53.168;18.156;2023-04-08T13:37:11;11.20;;;8.80;;
76552;SDS011;65395;53.168;18.156;2023-04-08T13:39:38;10.30;;;8.30;;
76552;SDS011;65395;53.168;18.156;2023-04-08T13:42:05;10.70;;;8.20;;
76552;SDS011;65395;53.168;18.156;2023-04-08T13:44:31;12.20;;;8.80;;
76552;SDS011;65395;53.168;18.156;2023-04-08T13:46:58;11.50;;;8.90;;
76552;SDS011;65395;53.168;18.156;2023-04-08T13:49:25;10.00;;;8.50;;
76552;SDS011;65395;53.168;18.156;2023-04-08T13:51:52;10.70;;;8.60;;
76552;SDS011;65395;53.168;18.156;2023-04-08T13:54:19;10.70;;;8.80;;
76552;SDS011;65395;53.168;18.156;2023-04-08T13:56:46;9.50;;;8.10;;
76552;SDS011;65395;53.168;18.156;2023-04-08T13:59:13;10.10;;;8.20;;
76552;SDS011;65395;53.168;18.156;2023-04-08T14:01:39;8.50;;;7.60;;
76552;SDS011;65395;53.168;18.156;2023-04-08T14:04:06;8.60;;;7.70;;
76552;SDS011;65395;53.168;18.156;2023-04-08T14:06:33;10.10;;;8.40;;
76552;SDS011;65395;53.168;18.156;2023-04-08T14:09:01;9.80;;;8.00;;
76552;SDS011;65395;53.168;18.156;2023-04-08T14:11:28;9.40;;;8.10;;
76552;SDS011;65395;53.168;18.156;2023-04-08T14:13:54;11.30;;;7.70;;
76552;SDS011;65395;53.168;18.156;2023-04-08T14:16:21;8.90;;;7.80;;
76552;SDS011;65395;53.168;18.156;2023-04-08T14:18:48;9.40;;;7.90;;
76552;SDS011;65395;53.168;18.156;2023-04-08T14:21:15;8.90;;;7.80;;
76552;SDS011;65395;53.168;18.156;2023-04-08T14:23:43;9.30;;;7.80;;
76552;SDS011;65395;53.168;18.156;2023-04-08T14:26:10;9.30;;;7.80;;
76552;SDS011;65395;53.168;18.156;2023-04-08T14:28:36;8.30;;;7.40;;
76552;SDS011;65395;53.168;18.156;2023-04-08T14:31:03;11.40;;;8.70;;
76552;SDS011;65395;53.168;18.156;2023-04-08T14:33:31;9.50;;;8.20;;
76552;SDS011;65395;53.168;18.156;2023-04-08T14:35:58;9.60;;;7.90;;
76552;SDS011;65395;53.168;18.156;2023-04-08T14:38:25;10.00;;;8.40;;
76552;SDS011;65395;53.168;18.156;2023-04-08T14:40:52;10.50;;;9.40;;
76552;SDS011;65395;53.168;18.156;2023-04-08T14:43:19;9.40;;;8.40;;
76552;SDS011;65395;53.168;18.156;2023-04-08T14:45:48;10.20;;;8.20;;
76552;SDS011;65395;53.168;18.156;2023-04-08T14:48:16;10.30;;;8.20;;
76552;SDS011;65395;53.168;18.156;2023-04-08T14:50:44;10.00;;;8.10;;
76552;SDS011;65395;53.168;18.156;2023-04-08T14:53:11;8.70;;;7.80;;
76552;SDS011;65395;53.168;18.156;2023-04-08T14:55:38;13.00;;;8.00;;